Austin, Texas
Traffic Map
Current Weather Conditions
Austin, Texas
Scattered Clouds
Scattered Clouds
31°
Feels Like: 36°
Wind Chill: 31° Ceiling: Unl
Heat Index: 36° Visibility: 10mi
Dew Point: 24° Wind: 6mph
Humidity: 65% Direction: 150° (SSE)
Pressure: 30.08in Gusts: 16mph
Raw Report DataKATT 251651Z AUTO 15005G14KT 10SM SCT027 31/24 A3008 RMK AO2 SLP170 T03110239
Traffic Incident Summary
Active as of:
Severity:
Category:
InformationThere was an issue retrieving the traffic information for this location. Please try a different location or try again shortly.
Advertisements
Track Severe Weather on mobile